WAM weather

Ambatondrazaka Airport
Ambatondrazaka, Toamasina, Madagascar

Public forecast

Using degrees Celsius for public forecast. Weather courtesy of forecast.io.

Closest aviation weather report (METAR) to Ambatondrazaka Airport

Closest report is Toamasina Airport, 57.4 nm (106.4 km) ESE. Retrieved 2019/10/22 20:00 UTC (15 minutes ago):

FMMT 222000Z 33002KT 9999 SCT017TCU 24/23 Q1015

Closest aviation forecast (TAF) to Ambatondrazaka Airport

Closest forecast is Toamasina Airport, 57.4 nm (106.4 km) ESE. Retrieved 2019/10/22 18:00 UTC (2 hours ago):

TAF FMNM 221700Z 2218/2318 28010KT 9999 FEW023 SCT040 TAF FMMT 221700Z 2218/2318 04010KT 9999 SCT017TCU SCT033 TEMPO 2300/2315 4000 RA